createdAt,value
2022-11-01T00:02:09.501Z,18.36
2022-11-01T00:04:37.077Z,18.34
2022-11-01T00:07:04.339Z,18.35
2022-11-01T00:09:31.236Z,18.34
2022-11-01T00:11:59.428Z,18.34
2022-11-01T00:14:26.410Z,18.32
2022-11-01T00:16:53.389Z,18.31
2022-11-01T00:19:20.364Z,18.30
2022-11-01T00:21:47.313Z,18.30
2022-11-01T00:24:14.309Z,18.30
2022-11-01T00:26:41.305Z,18.30
2022-11-01T00:29:08.469Z,18.30
2022-11-01T00:31:35.725Z,18.29
2022-11-01T00:34:05.797Z,18.31
2022-11-01T00:36:36.473Z,18.28
2022-11-01T00:39:04.771Z,18.29
2022-11-01T00:41:31.668Z,18.29
2022-11-01T00:43:58.571Z,18.27
2022-11-01T00:46:25.502Z,18.27
2022-11-01T00:48:52.404Z,18.27
2022-11-01T00:51:19.310Z,18.27
2022-11-01T00:53:46.185Z,18.25
2022-11-01T00:56:13.088Z,18.25
2022-11-01T00:58:39.955Z,18.24
2022-11-01T01:01:06.961Z,18.22
2022-11-01T01:03:33.870Z,18.23
2022-11-01T01:06:00.827Z,18.23
2022-11-01T01:08:28.420Z,18.23
2022-11-01T01:10:55.538Z,18.23
2022-11-01T01:13:22.636Z,18.22
2022-11-01T01:15:49.555Z,18.23
2022-11-01T01:18:16.815Z,18.23
2022-11-01T01:20:43.986Z,18.22
2022-11-01T01:23:10.991Z,18.22
2022-11-01T01:25:42.086Z,18.21
2022-11-01T01:28:09.490Z,18.20
2022-11-01T01:30:40.595Z,18.20
2022-11-01T01:33:07.533Z,18.19
2022-11-01T01:35:34.487Z,18.17
2022-11-01T01:38:01.664Z,18.16
2022-11-01T01:40:28.775Z,18.17
2022-11-01T01:42:55.688Z,18.17
2022-11-01T01:45:32.510Z,18.17
2022-11-01T01:48:23.051Z,18.17
2022-11-01T01:51:00.000Z,18.16
2022-11-01T01:53:43.357Z,18.17
2022-11-01T01:56:19.985Z,18.18
2022-11-01T01:58:55.370Z,18.17
2022-11-01T02:01:22.622Z,18.17
2022-11-01T02:03:50.202Z,18.15
2022-11-01T02:06:21.983Z,18.15
2022-11-01T02:09:18.005Z,18.14
2022-11-01T02:12:07.443Z,18.13
2022-11-01T02:14:54.288Z,18.12
2022-11-01T02:17:52.760Z,18.12
2022-11-01T02:21:09.794Z,18.12
2022-11-01T02:24:22.017Z,18.11
2022-11-01T02:27:14.898Z,18.11
2022-11-01T02:30:15.293Z,18.11
2022-11-01T02:32:58.628Z,18.11
2022-11-01T02:36:00.282Z,18.11
2022-11-01T02:38:36.159Z,18.10
2022-11-01T02:41:14.931Z,18.09
2022-11-01T02:44:02.700Z,18.09
2022-11-01T02:46:54.294Z,18.10
2022-11-01T02:49:24.225Z,18.07
2022-11-01T02:51:53.328Z,18.07
2022-11-01T02:54:32.972Z,18.06
2022-11-01T02:57:07.350Z,18.06
2022-11-01T02:59:44.757Z,18.06
2022-11-01T03:02:39.838Z,18.06
2022-11-01T03:05:22.919Z,18.06
2022-11-01T03:07:57.239Z,18.06
2022-11-01T03:10:36.303Z,18.04
2022-11-01T03:13:21.609Z,18.06
2022-11-01T03:16:00.486Z,18.05
2022-11-01T03:18:36.019Z,18.04
2022-11-01T03:21:18.566Z,18.05
2022-11-01T03:23:51.831Z,18.05
2022-11-01T03:26:26.195Z,18.04
2022-11-01T03:29:03.064Z,18.03
2022-11-01T03:31:33.214Z,18.02
2022-11-01T03:34:04.139Z,18.02
2022-11-01T03:36:39.243Z,18.03
2022-11-01T03:39:16.005Z,18.02
2022-11-01T03:41:48.388Z,18.02
2022-11-01T03:44:15.656Z,18.02
2022-11-01T03:46:43.408Z,18.04
2022-11-01T03:49:10.344Z,18.04
2022-11-01T03:51:37.262Z,18.01
2022-11-01T03:54:06.707Z,18.01
2022-11-01T03:56:33.581Z,18.01
2022-11-01T03:59:00.623Z,17.99
2022-11-01T04:01:27.567Z,17.99
2022-11-01T04:03:54.562Z,17.99
2022-11-01T04:06:21.571Z,17.98
2022-11-01T04:08:48.452Z,17.98
2022-11-01T04:11:15.320Z,18.00
2022-11-01T04:13:43.500Z,17.99
2022-11-01T04:16:32.465Z,17.98
2022-11-01T04:19:17.911Z,17.97
2022-11-01T04:21:45.145Z,17.97
2022-11-01T04:24:12.001Z,17.98
2022-11-01T04:26:38.923Z,17.97
2022-11-01T04:29:05.835Z,17.98
2022-11-01T04:31:37.216Z,17.96
2022-11-01T04:34:05.669Z,17.96
2022-11-01T04:36:32.614Z,17.96
2022-11-01T04:38:59.724Z,17.96
2022-11-01T04:41:28.573Z,17.96
2022-11-01T04:43:57.937Z,17.93
2022-11-01T04:46:25.426Z,17.95
2022-11-01T04:48:52.293Z,17.93
2022-11-01T04:51:19.142Z,17.94
2022-11-01T04:53:46.055Z,17.93
2022-11-01T04:56:14.148Z,17.93
2022-11-01T04:58:44.954Z,17.93
2022-11-01T05:01:15.039Z,17.94
2022-11-01T05:03:42.869Z,17.93
2022-11-01T05:06:09.997Z,17.95
2022-11-01T05:08:37.011Z,17.93
2022-11-01T05:11:04.186Z,17.93
2022-11-01T05:13:31.155Z,17.92
2022-11-01T05:18:45.113Z,17.91
2022-11-01T05:21:12.309Z,17.90
2022-11-01T05:23:39.175Z,17.90
2022-11-01T05:26:06.370Z,17.91
2022-11-01T05:28:33.617Z,17.91
2022-11-01T05:31:00.839Z,17.91
2022-11-01T05:33:27.728Z,17.91
2022-11-01T05:35:54.731Z,17.90
2022-11-01T05:38:21.682Z,17.90
2022-11-01T05:40:48.935Z,17.90
2022-11-01T05:43:15.848Z,17.91
2022-11-01T05:45:42.836Z,17.90
2022-11-01T05:48:09.731Z,17.91
2022-11-01T05:50:36.686Z,17.90
2022-11-01T05:53:07.588Z,17.89
2022-11-01T05:55:35.322Z,17.90
2022-11-01T05:58:02.287Z,17.88
2022-11-01T06:00:29.214Z,17.88
2022-11-01T06:02:58.585Z,17.87
2022-11-01T06:05:26.625Z,17.87
2022-11-01T06:07:53.824Z,17.88
2022-11-01T06:10:20.716Z,17.87
2022-11-01T06:12:47.640Z,17.86
2022-11-01T06:15:14.547Z,17.87
2022-11-01T06:17:41.438Z,17.85
2022-11-01T06:20:08.872Z,17.84
2022-11-01T06:22:39.122Z,17.84
2022-11-01T06:25:07.095Z,17.87
2022-11-01T06:27:34.040Z,17.84
2022-11-01T06:30:00.923Z,17.86
2022-11-01T06:32:27.837Z,17.86
2022-11-01T06:34:54.754Z,17.84
2022-11-01T06:37:21.600Z,17.83
2022-11-01T06:39:48.483Z,17.82
2022-11-01T06:42:15.382Z,17.81
2022-11-01T06:44:42.289Z,17.80
2022-11-01T06:47:09.319Z,17.81
2022-11-01T06:49:36.196Z,17.82
2022-11-01T06:52:03.595Z,17.81
2022-11-01T06:54:30.522Z,17.81
2022-11-01T06:56:57.613Z,17.81
2022-11-01T06:59:25.233Z,17.81
2022-11-01T07:01:55.427Z,17.79
2022-11-01T07:04:22.670Z,17.80
2022-11-01T07:06:49.823Z,17.80
2022-11-01T07:09:16.739Z,17.80
2022-11-01T07:11:43.629Z,17.79
2022-11-01T07:14:10.601Z,17.81
2022-11-01T07:16:39.149Z,17.81
2022-11-01T07:19:06.174Z,17.79
2022-11-01T07:21:33.068Z,17.80
2022-11-01T07:24:00.033Z,17.79
2022-11-01T07:26:26.928Z,17.79
2022-11-01T07:28:53.770Z,17.80
2022-11-01T07:31:20.790Z,17.80
2022-11-01T07:33:47.739Z,17.80
2022-11-01T07:36:14.771Z,17.80
2022-11-01T07:38:41.643Z,17.80
2022-11-01T07:41:08.523Z,17.81
2022-11-01T07:43:36.358Z,17.80
2022-11-01T07:46:07.542Z,17.80
2022-11-01T07:48:37.025Z,17.80
2022-11-01T07:51:06.322Z,17.79
2022-11-01T07:53:33.988Z,17.80
2022-11-01T07:56:02.164Z,17.79
2022-11-01T07:58:29.986Z,17.80
2022-11-01T08:00:57.064Z,17.79
2022-11-01T08:03:24.317Z,17.80
2022-11-01T08:05:51.272Z,17.80
2022-11-01T08:08:18.710Z,17.80
2022-11-01T08:10:46.630Z,17.81
2022-11-01T08:13:16.370Z,17.80
2022-11-01T08:15:43.569Z,17.81
2022-11-01T08:18:11.098Z,17.81
2022-11-01T08:20:38.248Z,17.83
2022-11-01T08:23:05.704Z,17.84
2022-11-01T08:25:35.246Z,17.84
2022-11-01T08:28:04.303Z,17.86
2022-11-01T08:30:31.625Z,17.84
2022-11-01T08:33:03.066Z,17.86
2022-11-01T08:35:31.281Z,17.85
2022-11-01T08:38:01.590Z,17.85
2022-11-01T08:40:28.740Z,17.86
2022-11-01T08:42:56.193Z,17.86
2022-11-01T08:45:23.830Z,17.88
2022-11-01T08:47:50.831Z,17.88
2022-11-01T08:50:18.472Z,17.88
2022-11-01T08:52:45.414Z,17.86
2022-11-01T08:55:12.451Z,17.87
2022-11-01T08:57:39.529Z,17.91
2022-11-01T09:00:07.565Z,17.91
2022-11-01T09:02:34.850Z,17.92
2022-11-01T09:05:06.867Z,17.89
2022-11-01T09:07:37.801Z,17.97
2022-11-01T09:10:05.509Z,17.97
2022-11-01T09:12:32.488Z,17.99
2022-11-01T09:14:59.345Z,17.96
2022-11-01T09:17:26.233Z,17.96
2022-11-01T09:19:53.081Z,17.97
2022-11-01T09:22:20.127Z,17.97
2022-11-01T09:24:47.054Z,17.98
2022-11-01T09:27:13.936Z,17.96
2022-11-01T09:29:40.802Z,17.98
2022-11-01T09:32:07.719Z,17.97
2022-11-01T10:08:06.496Z,15.32
2022-11-01T10:10:39.462Z,15.04
2022-11-01T10:13:35.514Z,15.08
2022-11-01T10:16:30.430Z,15.15
2022-11-01T10:19:19.333Z,15.30
2022-11-01T10:21:53.206Z,15.31
2022-11-01T10:24:36.129Z,15.31
2022-11-01T10:27:22.855Z,15.57
2022-11-01T10:30:22.118Z,15.65
2022-11-01T10:33:41.527Z,15.68
2022-11-01T10:36:14.924Z,15.61
2022-11-01T10:39:23.447Z,15.48
2022-11-01T10:41:45.701Z,15.31
2022-11-01T10:44:26.891Z,15.30
2022-11-01T10:46:55.513Z,15.23
2022-11-01T10:49:40.454Z,15.34
2022-11-01T10:52:20.187Z,15.34
2022-11-01T10:54:48.277Z,15.36
2022-11-01T10:57:30.011Z,15.38
2022-11-01T11:00:01.664Z,15.29
2022-11-01T11:02:35.077Z,15.26
2022-11-01T11:05:02.182Z,15.35
2022-11-01T11:07:32.918Z,15.45
2022-11-01T11:10:02.983Z,15.51
2022-11-01T11:12:31.546Z,15.63
2022-11-01T11:15:04.172Z,15.61
2022-11-01T11:17:31.059Z,15.72
2022-11-01T11:20:06.160Z,15.78
2022-11-01T11:22:40.075Z,15.77
2022-11-01T11:25:14.869Z,15.84
2022-11-01T11:27:48.962Z,15.88
2022-11-01T11:30:36.235Z,15.88
2022-11-01T11:33:03.689Z,15.95
2022-11-01T11:35:33.768Z,16.06
2022-11-01T11:38:06.879Z,15.99
2022-11-01T11:40:41.043Z,15.70
2022-11-01T11:43:30.632Z,15.68
2022-11-01T11:46:15.077Z,15.77
2022-11-01T11:48:52.823Z,15.82
2022-11-01T11:51:21.802Z,15.86
2022-11-01T11:54:29.430Z,15.95
2022-11-01T11:57:11.853Z,15.92
2022-11-01T11:59:41.542Z,15.93
2022-11-01T12:02:20.151Z,15.84
2022-11-01T12:04:58.417Z,15.86
2022-11-01T12:07:34.445Z,15.80
2022-11-01T12:10:07.237Z,15.93
2022-11-01T12:12:42.851Z,15.82
2022-11-01T12:15:41.411Z,15.86
2022-11-01T12:18:17.186Z,15.72
2022-11-01T12:20:50.317Z,15.49
2022-11-01T12:23:33.746Z,15.29
2022-11-01T12:26:05.559Z,15.24
2022-11-01T12:28:45.109Z,15.22
2022-11-01T12:31:18.094Z,15.12
2022-11-01T12:33:54.850Z,14.89
2022-11-01T12:36:29.476Z,14.79
2022-11-01T12:39:03.755Z,15.37
2022-11-01T12:41:53.150Z,15.32
2022-11-01T12:44:29.241Z,15.06
2022-11-01T12:47:04.639Z,15.87
2022-11-01T12:49:56.813Z,15.75
2022-11-01T12:52:30.277Z,15.95
2022-11-01T12:57:39.883Z,15.98
2022-11-01T13:00:07.947Z,16.04
2022-11-01T13:02:34.861Z,15.99
2022-11-01T13:05:11.972Z,15.71
2022-11-01T13:07:56.369Z,15.46
2022-11-01T13:10:30.620Z,15.15
2022-11-01T13:13:22.849Z,14.82
2022-11-01T13:15:58.454Z,14.95
2022-11-01T13:18:48.186Z,14.99
2022-11-01T13:21:38.795Z,15.00
2022-11-01T13:24:29.285Z,14.97
2022-11-01T13:27:05.450Z,15.06
2022-11-01T13:29:56.937Z,15.01
2022-11-01T13:33:11.731Z,14.96
2022-11-01T13:36:01.608Z,15.01
2022-11-01T13:39:00.814Z,14.90
2022-11-01T13:41:37.250Z,14.82
2022-11-01T13:44:17.106Z,14.62
2022-11-01T13:46:56.466Z,14.70
2022-11-01T13:49:51.513Z,14.73
2022-11-01T13:52:23.764Z,14.58
2022-11-01T13:55:15.352Z,14.62
2022-11-01T13:57:45.057Z,14.62
2022-11-01T14:00:40.472Z,14.40
2022-11-01T14:03:23.026Z,14.36
2022-11-01T14:06:11.636Z,14.31
2022-11-01T14:08:49.654Z,14.12
2022-11-01T14:11:41.563Z,14.00
2022-11-01T14:14:30.180Z,13.92
2022-11-01T14:17:19.029Z,13.81
2022-11-01T14:19:48.474Z,13.77
2022-11-01T14:22:24.635Z,13.72
2022-11-01T14:24:57.933Z,13.61
2022-11-01T14:27:35.715Z,13.40
2022-11-01T14:30:12.605Z,13.32
2022-11-01T14:32:39.714Z,13.22
2022-11-01T14:35:23.246Z,13.12
2022-11-01T14:37:54.969Z,12.95
2022-11-01T14:40:30.976Z,12.80
2022-11-01T14:43:10.498Z,12.66
2022-11-01T14:45:44.825Z,12.63
2022-11-01T14:48:25.413Z,12.50
2022-11-01T14:51:08.115Z,12.37
2022-11-01T14:53:37.686Z,12.34
2022-11-01T14:56:16.229Z,12.26
2022-11-01T14:58:44.122Z,12.15
2022-11-01T15:01:21.009Z,12.14
2022-11-01T15:04:22.263Z,12.05
2022-11-01T15:06:50.399Z,12.03
2022-11-01T15:09:28.107Z,11.95
2022-11-01T15:12:05.384Z,11.96
2022-11-01T15:14:40.735Z,11.91
2022-11-01T15:17:20.650Z,11.88
2022-11-01T15:19:48.693Z,11.83
2022-11-01T15:22:22.554Z,11.77
2022-11-01T15:24:56.875Z,11.47
2022-11-01T15:27:29.842Z,11.63
2022-11-01T15:29:57.022Z,11.55
2022-11-01T15:32:30.613Z,11.49
2022-11-01T15:35:00.631Z,11.41
2022-11-01T15:37:31.566Z,11.41
2022-11-01T15:40:00.846Z,11.39
2022-11-01T15:42:34.238Z,11.36
2022-11-01T15:45:26.948Z,11.07
2022-11-01T15:47:54.447Z,11.29
2022-11-01T15:50:21.668Z,11.27
2022-11-01T15:52:49.062Z,10.96
2022-11-01T15:55:34.629Z,11.21
2022-11-01T15:58:09.098Z,11.16
2022-11-01T16:00:46.598Z,10.84
2022-11-01T16:03:23.738Z,11.09
2022-11-01T16:05:59.715Z,10.80
2022-11-01T16:08:39.869Z,11.05
2022-11-01T16:11:07.508Z,11.02
2022-11-01T16:13:35.037Z,10.98
2022-11-01T16:16:08.078Z,10.92
2022-11-01T16:18:37.152Z,10.92
2022-11-01T16:21:19.353Z,10.87
2022-11-01T16:23:52.645Z,10.83
2022-11-01T16:26:19.694Z,10.83
2022-11-01T16:28:47.245Z,10.82
2022-11-01T16:31:33.555Z,10.78
2022-11-01T16:34:00.599Z,10.77
2022-11-01T16:36:44.167Z,10.75
2022-11-01T16:39:27.856Z,10.73
2022-11-01T16:41:54.984Z,10.68
2022-11-01T16:44:22.355Z,10.70
2022-11-01T16:46:50.019Z,10.68
2022-11-01T16:49:19.446Z,10.66
2022-11-01T16:51:46.698Z,10.64
2022-11-01T16:54:13.648Z,10.62
2022-11-01T16:56:50.041Z,10.29
2022-11-01T16:59:29.103Z,10.56
2022-11-01T17:01:58.757Z,10.55
2022-11-01T17:04:30.264Z,10.51
2022-11-01T17:06:58.855Z,10.49
2022-11-01T17:09:31.738Z,10.47
2022-11-01T17:11:59.530Z,10.43
2022-11-01T17:14:26.841Z,10.43
2022-11-01T17:16:56.526Z,10.40
2022-11-01T17:19:29.890Z,10.39
2022-11-01T17:21:59.299Z,10.35
2022-11-01T17:24:29.250Z,10.29
2022-11-01T17:27:00.334Z,10.28
2022-11-01T17:29:27.342Z,10.27
2022-11-01T17:31:54.388Z,10.27
2022-11-01T17:34:21.501Z,10.21
2022-11-01T17:36:50.130Z,10.20
2022-11-01T17:39:17.594Z,10.21
2022-11-01T17:41:44.645Z,10.20
2022-11-01T17:44:12.540Z,10.08
2022-11-01T17:46:40.823Z,10.17
2022-11-01T17:49:07.922Z,10.16
2022-11-01T17:51:36.430Z,10.16
2022-11-01T17:54:04.009Z,10.15
2022-11-01T17:56:31.492Z,10.14
2022-11-01T17:58:58.332Z,10.13
2022-11-01T18:01:25.511Z,10.15
2022-11-01T18:03:52.640Z,10.13
2022-11-01T18:06:19.597Z,10.12
2022-11-01T18:08:50.754Z,10.12
2022-11-01T18:12:05.827Z,10.12
2022-11-01T18:14:32.693Z,10.12
2022-11-01T18:17:29.141Z,10.12
2022-11-01T18:20:04.112Z,10.12
2022-11-01T18:22:36.524Z,10.11
2022-11-01T18:25:33.263Z,10.10
2022-11-01T18:28:02.969Z,10.10
2022-11-01T18:30:30.500Z,9.95
2022-11-01T18:35:54.182Z,10.07
2022-11-01T18:38:33.939Z,10.08
2022-11-01T18:41:02.451Z,10.06
2022-11-01T18:43:33.891Z,10.03
2022-11-01T18:46:29.116Z,10.04
2022-11-01T18:49:00.592Z,10.02
2022-11-01T18:51:34.036Z,9.97
2022-11-01T18:54:22.683Z,9.96
2022-11-01T18:57:16.364Z,9.94
2022-11-01T18:59:45.860Z,9.91
2022-11-01T19:02:16.040Z,9.88
2022-11-01T19:04:43.744Z,9.86
2022-11-01T19:07:14.782Z,9.82
2022-11-01T19:09:56.546Z,9.82
2022-11-01T19:12:31.663Z,9.81
2022-11-01T19:15:30.855Z,9.80
2022-11-01T19:18:03.905Z,9.80
2022-11-01T19:20:34.914Z,9.80
2022-11-01T19:23:03.956Z,9.80
2022-11-01T19:25:33.505Z,9.63
2022-11-01T19:28:11.581Z,9.79
2022-11-01T19:30:38.642Z,9.77
2022-11-01T19:33:33.266Z,9.76
2022-11-01T19:36:05.426Z,9.72
2022-11-01T19:38:32.323Z,9.73
2022-11-01T19:40:59.693Z,9.73
2022-11-01T19:43:28.316Z,9.73
2022-11-01T19:45:57.920Z,9.73
2022-11-01T19:48:30.267Z,9.72
2022-11-01T19:50:57.843Z,9.72
2022-11-01T19:53:27.946Z,9.72
2022-11-01T19:56:04.139Z,9.74
2022-11-01T19:58:46.680Z,9.74
2022-11-01T20:01:17.454Z,9.75
2022-11-01T20:03:48.079Z,9.77
2022-11-01T20:06:24.268Z,9.77
2022-11-01T20:08:55.905Z,9.79
2022-11-01T20:11:23.053Z,9.80
2022-11-01T20:13:50.185Z,9.81
2022-11-01T20:16:17.254Z,9.82
2022-11-01T20:18:45.021Z,9.83
2022-11-01T20:21:12.938Z,9.83
2022-11-01T20:23:40.235Z,9.84
2022-11-01T20:26:07.282Z,9.86
2022-11-01T20:28:34.220Z,9.88
2022-11-01T20:31:01.374Z,9.86
2022-11-01T20:33:28.301Z,9.74
2022-11-01T20:35:55.465Z,9.89
2022-11-01T20:38:24.362Z,9.89
2022-11-01T20:40:51.376Z,9.90
2022-11-01T20:43:18.750Z,9.92
2022-11-01T20:45:45.696Z,9.95
2022-11-01T20:48:12.559Z,9.95
2022-11-01T20:50:39.771Z,9.99
2022-11-01T20:53:07.306Z,10.00
2022-11-01T20:55:34.297Z,10.01
2022-11-01T20:58:02.139Z,10.01
2022-11-01T21:00:29.920Z,9.95
2022-11-01T21:02:58.088Z,10.03
2022-11-01T21:05:30.110Z,10.05
2022-11-01T21:08:22.722Z,10.08
2022-11-01T21:10:56.870Z,10.10
2022-11-01T21:13:42.528Z,10.12
2022-11-01T21:16:23.059Z,10.14
2022-11-01T21:18:59.722Z,10.16
2022-11-01T21:21:33.091Z,10.19
2022-11-01T21:24:02.489Z,10.23
2022-11-01T21:26:32.141Z,10.26
2022-11-01T21:29:05.795Z,10.28
2022-11-01T21:31:35.419Z,10.31
2022-11-01T21:34:12.181Z,10.37
2022-11-01T21:36:44.741Z,10.41
2022-11-01T21:39:22.925Z,10.45
2022-11-01T21:42:29.889Z,10.51
2022-11-01T21:44:57.552Z,10.53
2022-11-01T21:47:24.465Z,10.58
2022-11-01T21:49:56.267Z,10.62
2022-11-01T21:52:24.498Z,10.46
2022-11-01T21:54:52.980Z,10.67
2022-11-01T21:57:20.124Z,10.56
2022-11-01T21:59:47.503Z,10.74
2022-11-01T22:02:15.437Z,10.69
2022-11-01T22:04:42.774Z,10.79
2022-11-01T22:07:12.863Z,10.81
2022-11-01T22:09:40.183Z,10.83
2022-11-01T22:12:08.167Z,10.87
2022-11-01T22:14:35.518Z,10.86
2022-11-01T22:17:02.627Z,10.85
2022-11-01T22:19:29.626Z,10.88
2022-11-01T22:21:57.159Z,10.84
2022-11-01T22:24:24.161Z,10.93
2022-11-01T22:26:51.276Z,10.92
2022-11-01T22:29:18.305Z,10.89
2022-11-01T22:31:45.161Z,10.92
2022-11-01T22:34:12.139Z,10.90
2022-11-01T22:36:40.741Z,10.89
2022-11-01T22:39:21.294Z,10.86
2022-11-01T22:41:48.867Z,10.83
2022-11-01T22:44:44.445Z,10.81
2022-11-01T22:47:28.497Z,10.82
2022-11-01T22:50:02.238Z,10.83
2022-11-01T22:52:32.256Z,10.81
2022-11-01T22:55:11.344Z,10.82
2022-11-01T22:57:52.062Z,10.83
2022-11-01T23:00:36.489Z,10.48
2022-11-01T23:03:22.011Z,10.83
2022-11-01T23:05:54.778Z,10.82
2022-11-01T23:08:24.999Z,10.81
2022-11-01T23:10:52.749Z,10.83
2022-11-01T23:13:44.365Z,10.77
2022-11-01T23:16:35.151Z,10.84
2022-11-01T23:19:03.720Z,10.83
2022-11-01T23:21:30.735Z,10.83
2022-11-01T23:23:57.961Z,10.82
2022-11-01T23:26:25.214Z,10.81
2022-11-01T23:28:54.717Z,10.81
2022-11-01T23:31:23.826Z,10.82
2022-11-01T23:33:51.779Z,10.82
2022-11-01T23:36:26.284Z,10.82
2022-11-01T23:39:10.283Z,10.81
2022-11-01T23:41:39.012Z,10.80
2022-11-01T23:44:29.211Z,10.79
2022-11-01T23:47:22.869Z,10.79
2022-11-01T23:50:04.868Z,10.76
2022-11-01T23:52:47.278Z,10.74
2022-11-01T23:55:26.033Z,10.70
2022-11-01T23:57:59.499Z,10.72
